createdAt,value
2019-04-10T00:23:45.239Z,13.65
2019-04-10T00:53:49.764Z,9.93
2019-04-10T01:23:53.682Z,7.90
2019-04-10T01:53:58.525Z,6.75
2019-04-10T02:24:02.941Z,6.15
2019-04-10T02:54:06.676Z,4.95
2019-04-10T03:24:10.356Z,4.30
2019-04-10T03:54:15.172Z,4.90
2019-04-10T04:24:21.266Z,4.85
2019-04-10T04:54:25.504Z,6.20
2019-04-10T05:24:30.043Z,7.90
2019-04-10T05:54:33.885Z,7.60
2019-04-10T07:57:02.583Z,9.45
2019-04-10T08:27:07.395Z,9.30
2019-04-10T08:57:12.224Z,11.33
2019-04-10T09:27:17.113Z,8.53
2019-04-10T09:57:21.022Z,8.83
2019-04-10T10:27:24.775Z,8.90
2019-04-10T10:57:28.614Z,9.78
2019-04-10T11:27:34.252Z,10.70
2019-04-10T11:57:38.176Z,10.68
2019-04-10T12:27:42.094Z,17.73
2019-04-10T12:57:46.047Z,11.12
2019-04-10T13:27:50.770Z,12.73
2019-04-10T13:57:55.041Z,10.88
2019-04-10T14:27:59.094Z,12.43
2019-04-10T14:58:03.484Z,13.98
2019-04-10T15:28:08.470Z,23.35
2019-04-10T15:58:12.860Z,11.50
2019-04-10T16:28:17.925Z,13.30
2019-04-10T16:58:21.785Z,13.60
2019-04-10T17:28:26.578Z,15.13
2019-04-10T17:58:31.657Z,17.80
2019-04-10T18:28:37.913Z,17.55
2019-04-10T18:58:43.714Z,18.07
2019-04-10T19:28:48.781Z,16.95
2019-04-10T19:58:52.730Z,14.60
2019-04-10T20:28:57.649Z,13.93
2019-04-10T20:59:02.195Z,15.55
2019-04-10T21:29:09.403Z,13.83
2019-04-10T21:59:16.017Z,14.05
2019-04-10T22:29:19.573Z,14.30
2019-04-10T22:59:24.223Z,13.10
2019-04-10T23:29:29.250Z,12.93
2019-04-10T23:59:33.549Z,12.18
